sensor_id;sensor_type;location;lat;lon;timestamp;P1;durP1;ratioP1;P2;durP2;ratioP2
9186;SDS011;7273;48.902;9.410;2023-02-01T00:02:23;176.97;;;70.03;;
9186;SDS011;7273;48.902;9.410;2023-02-01T00:04:48;198.32;;;75.38;;
9186;SDS011;7273;48.902;9.410;2023-02-01T00:07:14;273.83;;;94.70;;
9186;SDS011;7273;48.902;9.410;2023-02-01T00:09:39;252.95;;;89.20;;
9186;SDS011;7273;48.902;9.410;2023-02-01T00:12:05;169.68;;;69.45;;
9186;SDS011;7273;48.902;9.410;2023-02-01T00:14:30;166.48;;;66.72;;
9186;SDS011;7273;48.902;9.410;2023-02-01T00:17:03;167.82;;;67.07;;
9186;SDS011;7273;48.902;9.410;2023-02-01T00:19:29;168.18;;;67.28;;
9186;SDS011;7273;48.902;9.410;2023-02-01T00:21:55;169.95;;;67.45;;
9186;SDS011;7273;48.902;9.410;2023-02-01T00:24:20;173.20;;;69.07;;
9186;SDS011;7273;48.902;9.410;2023-02-01T00:26:45;175.23;;;69.85;;
9186;SDS011;7273;48.902;9.410;2023-02-01T00:29:18;180.57;;;70.88;;
9186;SDS011;7273;48.902;9.410;2023-02-01T00:31:45;256.92;;;90.20;;
9186;SDS011;7273;48.902;9.410;2023-02-01T00:34:12;256.67;;;89.82;;
9186;SDS011;7273;48.902;9.410;2023-02-01T00:36:40;207.00;;;77.28;;
9186;SDS011;7273;48.902;9.410;2023-02-01T00:39:06;251.90;;;88.40;;
9186;SDS011;7273;48.902;9.410;2023-02-01T00:41:32;270.30;;;93.93;;
9186;SDS011;7273;48.902;9.410;2023-02-01T00:43:57;237.70;;;85.63;;
9186;SDS011;7273;48.902;9.410;2023-02-01T00:46:23;191.60;;;74.90;;
9186;SDS011;7273;48.902;9.410;2023-02-01T00:48:49;169.13;;;67.85;;
9186;SDS011;7273;48.902;9.410;2023-02-01T00:51:17;165.55;;;67.00;;
9186;SDS011;7273;48.902;9.410;2023-02-01T00:53:45;168.95;;;68.13;;
9186;SDS011;7273;48.902;9.410;2023-02-01T00:56:10;166.60;;;66.95;;
9186;SDS011;7273;48.902;9.410;2023-02-01T00:58:36;173.75;;;69.18;;
9186;SDS011;7273;48.902;9.410;2023-02-01T01:01:03;177.70;;;69.90;;
9186;SDS011;7273;48.902;9.410;2023-02-01T01:03:34;181.50;;;71.03;;
9186;SDS011;7273;48.902;9.410;2023-02-01T01:06:02;183.55;;;71.40;;
9186;SDS011;7273;48.902;9.410;2023-02-01T01:08:30;190.60;;;73.63;;
9186;SDS011;7273;48.902;9.410;2023-02-01T01:10:55;195.68;;;74.95;;
9186;SDS011;7273;48.902;9.410;2023-02-01T01:13:21;281.02;;;96.43;;
9186;SDS011;7273;48.902;9.410;2023-02-01T01:15:46;289.95;;;98.35;;
9186;SDS011;7273;48.902;9.410;2023-02-01T01:18:11;266.40;;;92.95;;
9186;SDS011;7273;48.902;9.410;2023-02-01T01:20:38;174.52;;;69.03;;
9186;SDS011;7273;48.902;9.410;2023-02-01T01:23:05;173.05;;;68.90;;
9186;SDS011;7273;48.902;9.410;2023-02-01T01:25:32;173.00;;;69.00;;
9186;SDS011;7273;48.902;9.410;2023-02-01T01:28:01;173.60;;;68.95;;
9186;SDS011;7273;48.902;9.410;2023-02-01T01:30:27;173.77;;;68.90;;
9186;SDS011;7273;48.902;9.410;2023-02-01T01:32:52;177.18;;;69.63;;
9186;SDS011;7273;48.902;9.410;2023-02-01T01:35:18;178.02;;;70.35;;
9186;SDS011;7273;48.902;9.410;2023-02-01T01:37:43;187.38;;;72.80;;
9186;SDS011;7273;48.902;9.410;2023-02-01T01:40:09;251.27;;;89.03;;
9186;SDS011;7273;48.902;9.410;2023-02-01T01:42:39;292.50;;;99.22;;
9186;SDS011;7273;48.902;9.410;2023-02-01T01:50:24;194.65;;;74.93;;
9186;SDS011;7273;48.902;9.410;2023-02-01T01:52:54;181.27;;;70.72;;
9186;SDS011;7273;48.902;9.410;2023-02-01T01:55:23;175.38;;;69.28;;
9186;SDS011;7273;48.902;9.410;2023-02-01T01:57:53;176.00;;;70.00;;
9186;SDS011;7273;48.902;9.410;2023-02-01T02:00:31;175.35;;;69.35;;
9186;SDS011;7273;48.902;9.410;2023-02-01T02:03:14;171.88;;;68.43;;
9186;SDS011;7273;48.902;9.410;2023-02-01T02:05:49;174.45;;;69.20;;
9186;SDS011;7273;48.902;9.410;2023-02-01T02:08:17;172.95;;;68.47;;
9186;SDS011;7273;48.902;9.410;2023-02-01T02:10:45;175.40;;;69.38;;
9186;SDS011;7273;48.902;9.410;2023-02-01T02:13:25;178.73;;;70.60;;
9186;SDS011;7273;48.902;9.410;2023-02-01T02:21:12;288.45;;;98.28;;
9186;SDS011;7273;48.902;9.410;2023-02-01T02:34:22;175.63;;;69.53;;
9186;SDS011;7273;48.902;9.410;2023-02-01T02:46:04;180.00;;;71.22;;
9186;SDS011;7273;48.902;9.410;2023-02-01T02:51:27;179.80;;;71.00;;
9186;SDS011;7273;48.902;9.410;2023-02-01T02:54:28;180.90;;;71.10;;
9186;SDS011;7273;48.902;9.410;2023-02-01T02:57:28;184.35;;;73.55;;
9186;SDS011;7273;48.902;9.410;2023-02-01T03:00:17;188.13;;;72.75;;
9186;SDS011;7273;48.902;9.410;2023-02-01T03:03:04;188.23;;;72.80;;
9186;SDS011;7273;48.902;9.410;2023-02-01T03:05:50;197.02;;;75.03;;
9186;SDS011;7273;48.902;9.410;2023-02-01T03:08:17;210.82;;;79.15;;
9186;SDS011;7273;48.902;9.410;2023-02-01T03:10:48;205.93;;;77.40;;
9186;SDS011;7273;48.902;9.410;2023-02-01T03:16:07;241.63;;;86.65;;
9186;SDS011;7273;48.902;9.410;2023-02-01T03:21:11;308.33;;;103.13;;
9186;SDS011;7273;48.902;9.410;2023-02-01T03:23:43;223.45;;;81.85;;
9186;SDS011;7273;48.902;9.410;2023-02-01T03:26:11;189.07;;;72.75;;
9186;SDS011;7273;48.902;9.410;2023-02-01T03:28:44;177.25;;;69.90;;
9186;SDS011;7273;48.902;9.410;2023-02-01T03:31:19;170.55;;;68.22;;
9186;SDS011;7273;48.902;9.410;2023-02-01T03:33:45;166.95;;;67.25;;
9186;SDS011;7273;48.902;9.410;2023-02-01T03:39:09;166.73;;;67.30;;
9186;SDS011;7273;48.902;9.410;2023-02-01T03:41:52;166.02;;;66.47;;
9186;SDS011;7273;48.902;9.410;2023-02-01T03:44:22;166.52;;;67.10;;
9186;SDS011;7273;48.902;9.410;2023-02-01T03:46:59;164.63;;;66.25;;
9186;SDS011;7273;48.902;9.410;2023-02-01T03:49:28;164.68;;;66.80;;
9186;SDS011;7273;48.902;9.410;2023-02-01T03:51:58;164.05;;;66.22;;
9186;SDS011;7273;48.902;9.410;2023-02-01T03:54:24;163.45;;;65.82;;
9186;SDS011;7273;48.902;9.410;2023-02-01T03:56:52;162.52;;;65.55;;
9186;SDS011;7273;48.902;9.410;2023-02-01T03:59:21;163.10;;;65.95;;
9186;SDS011;7273;48.902;9.410;2023-02-01T04:01:46;162.65;;;65.95;;
9186;SDS011;7273;48.902;9.410;2023-02-01T04:04:12;163.50;;;66.68;;
9186;SDS011;7273;48.902;9.410;2023-02-01T04:06:45;163.52;;;65.97;;
9186;SDS011;7273;48.902;9.410;2023-02-01T04:09:11;163.95;;;66.63;;
9186;SDS011;7273;48.902;9.410;2023-02-01T04:11:36;163.32;;;66.10;;
9186;SDS011;7273;48.902;9.410;2023-02-01T04:14:02;162.77;;;65.93;;
9186;SDS011;7273;48.902;9.410;2023-02-01T04:16:29;164.65;;;66.75;;
9186;SDS011;7273;48.902;9.410;2023-02-01T04:18:56;164.05;;;66.38;;
9186;SDS011;7273;48.902;9.410;2023-02-01T04:21:22;164.48;;;66.03;;
9186;SDS011;7273;48.902;9.410;2023-02-01T04:23:47;166.10;;;66.97;;
9186;SDS011;7273;48.902;9.410;2023-02-01T04:26:13;163.27;;;65.67;;
9186;SDS011;7273;48.902;9.410;2023-02-01T04:28:38;164.55;;;66.55;;
9186;SDS011;7273;48.902;9.410;2023-02-01T04:31:04;163.63;;;66.47;;
9186;SDS011;7273;48.902;9.410;2023-02-01T04:33:29;163.07;;;65.65;;
9186;SDS011;7273;48.902;9.410;2023-02-01T04:35:54;165.98;;;67.05;;
9186;SDS011;7273;48.902;9.410;2023-02-01T04:38:20;164.13;;;66.40;;
9186;SDS011;7273;48.902;9.410;2023-02-01T04:40:49;165.13;;;67.07;;
9186;SDS011;7273;48.902;9.410;2023-02-01T04:43:15;165.40;;;67.47;;
9186;SDS011;7273;48.902;9.410;2023-02-01T04:45:41;166.07;;;69.05;;
9186;SDS011;7273;48.902;9.410;2023-02-01T04:48:11;164.30;;;66.53;;
9186;SDS011;7273;48.902;9.410;2023-02-01T04:50:36;164.75;;;66.95;;
9186;SDS011;7273;48.902;9.410;2023-02-01T04:53:02;164.65;;;66.55;;
9186;SDS011;7273;48.902;9.410;2023-02-01T04:55:27;166.40;;;67.22;;
9186;SDS011;7273;48.902;9.410;2023-02-01T04:57:53;164.75;;;66.93;;
9186;SDS011;7273;48.902;9.410;2023-02-01T05:00:18;166.38;;;67.28;;
9186;SDS011;7273;48.902;9.410;2023-02-01T05:02:44;164.10;;;66.50;;
9186;SDS011;7273;48.902;9.410;2023-02-01T05:05:09;165.88;;;67.28;;
9186;SDS011;7273;48.902;9.410;2023-02-01T05:07:35;169.82;;;69.60;;
9186;SDS011;7273;48.902;9.410;2023-02-01T05:10:00;165.47;;;67.00;;
9186;SDS011;7273;48.902;9.410;2023-02-01T05:12:26;165.88;;;67.72;;
9186;SDS011;7273;48.902;9.410;2023-02-01T05:15:09;166.70;;;67.40;;
9186;SDS011;7273;48.902;9.410;2023-02-01T05:17:35;169.07;;;68.32;;
9186;SDS011;7273;48.902;9.410;2023-02-01T05:20:00;166.27;;;66.95;;
9186;SDS011;7273;48.902;9.410;2023-02-01T05:22:25;168.38;;;68.78;;
9186;SDS011;7273;48.902;9.410;2023-02-01T05:24:51;168.10;;;68.05;;
9186;SDS011;7273;48.902;9.410;2023-02-01T05:27:16;169.57;;;68.90;;
9186;SDS011;7273;48.902;9.410;2023-02-01T05:29:42;169.82;;;68.40;;
9186;SDS011;7273;48.902;9.410;2023-02-01T05:32:08;169.98;;;68.35;;
9186;SDS011;7273;48.902;9.410;2023-02-01T05:34:35;169.73;;;68.18;;
9186;SDS011;7273;48.902;9.410;2023-02-01T05:37:02;172.15;;;69.40;;
9186;SDS011;7273;48.902;9.410;2023-02-01T05:39:27;171.02;;;68.88;;
9186;SDS011;7273;48.902;9.410;2023-02-01T05:41:52;173.07;;;68.97;;
9186;SDS011;7273;48.902;9.410;2023-02-01T05:44:18;174.67;;;69.57;;
9186;SDS011;7273;48.902;9.410;2023-02-01T05:46:43;174.57;;;69.25;;
9186;SDS011;7273;48.902;9.410;2023-02-01T05:49:08;176.07;;;69.75;;
9186;SDS011;7273;48.902;9.410;2023-02-01T05:51:34;180.18;;;71.13;;
9186;SDS011;7273;48.902;9.410;2023-02-01T05:53:59;176.13;;;69.70;;
9186;SDS011;7273;48.902;9.410;2023-02-01T05:56:25;183.35;;;71.60;;
9186;SDS011;7273;48.902;9.410;2023-02-01T05:58:51;186.27;;;72.57;;
9186;SDS011;7273;48.902;9.410;2023-02-01T06:01:16;192.32;;;74.03;;
9186;SDS011;7273;48.902;9.410;2023-02-01T06:03:42;195.93;;;74.88;;
9186;SDS011;7273;48.902;9.410;2023-02-01T06:06:07;197.48;;;75.00;;
9186;SDS011;7273;48.902;9.410;2023-02-01T06:08:33;200.57;;;77.88;;
9186;SDS011;7273;48.902;9.410;2023-02-01T06:11:02;205.10;;;77.43;;
9186;SDS011;7273;48.902;9.410;2023-02-01T06:13:29;225.80;;;82.78;;
9186;SDS011;7273;48.902;9.410;2023-02-01T06:15:55;271.23;;;94.18;;
9186;SDS011;7273;48.902;9.410;2023-02-01T06:18:22;300.67;;;100.75;;
9186;SDS011;7273;48.902;9.410;2023-02-01T06:20:55;226.07;;;82.75;;
9186;SDS011;7273;48.902;9.410;2023-02-01T06:23:21;226.43;;;82.90;;
9186;SDS011;7273;48.902;9.410;2023-02-01T06:25:49;321.50;;;106.00;;
9186;SDS011;7273;48.902;9.410;2023-02-01T06:28:15;189.57;;;73.78;;
9186;SDS011;7273;48.902;9.410;2023-02-01T06:30:41;175.50;;;70.10;;
9186;SDS011;7273;48.902;9.410;2023-02-01T06:33:10;174.25;;;69.55;;
9186;SDS011;7273;48.902;9.410;2023-02-01T06:35:38;173.52;;;69.43;;
9186;SDS011;7273;48.902;9.410;2023-02-01T06:38:04;173.45;;;68.65;;
9186;SDS011;7273;48.902;9.410;2023-02-01T06:40:29;179.40;;;71.47;;
9186;SDS011;7273;48.902;9.410;2023-02-01T06:42:54;177.75;;;70.45;;
9186;SDS011;7273;48.902;9.410;2023-02-01T06:45:20;176.68;;;69.95;;
9186;SDS011;7273;48.902;9.410;2023-02-01T06:47:45;178.38;;;70.68;;
9186;SDS011;7273;48.902;9.410;2023-02-01T06:50:11;178.98;;;70.93;;
9186;SDS011;7273;48.902;9.410;2023-02-01T06:52:36;189.20;;;74.43;;
9186;SDS011;7273;48.902;9.410;2023-02-01T06:55:01;189.63;;;73.47;;
9186;SDS011;7273;48.902;9.410;2023-02-01T06:57:27;198.45;;;75.95;;
9186;SDS011;7273;48.902;9.410;2023-02-01T06:59:55;208.45;;;77.72;;
9186;SDS011;7273;48.902;9.410;2023-02-01T07:02:21;221.82;;;81.25;;
9186;SDS011;7273;48.902;9.410;2023-02-01T07:04:46;302.73;;;101.28;;
9186;SDS011;7273;48.902;9.410;2023-02-01T07:07:12;215.48;;;79.63;;
9186;SDS011;7273;48.902;9.410;2023-02-01T07:09:37;210.23;;;78.60;;
9186;SDS011;7273;48.902;9.410;2023-02-01T07:12:03;214.50;;;79.45;;
9186;SDS011;7273;48.902;9.410;2023-02-01T07:14:29;307.13;;;102.30;;
9186;SDS011;7273;48.902;9.410;2023-02-01T07:16:54;195.90;;;74.95;;
9186;SDS011;7273;48.902;9.410;2023-02-01T07:19:19;185.73;;;71.97;;
9186;SDS011;7273;48.902;9.410;2023-02-01T07:21:45;180.13;;;71.07;;
9186;SDS011;7273;48.902;9.410;2023-02-01T07:24:10;176.48;;;69.70;;
9186;SDS011;7273;48.902;9.410;2023-02-01T07:26:36;179.18;;;71.13;;
9186;SDS011;7273;48.902;9.410;2023-02-01T07:29:01;177.15;;;70.05;;
9186;SDS011;7273;48.902;9.410;2023-02-01T07:31:26;178.32;;;70.85;;
9186;SDS011;7273;48.902;9.410;2023-02-01T07:33:53;181.38;;;71.57;;
9186;SDS011;7273;48.902;9.410;2023-02-01T07:36:21;182.98;;;72.05;;
9186;SDS011;7273;48.902;9.410;2023-02-01T07:38:46;185.93;;;72.25;;
9186;SDS011;7273;48.902;9.410;2023-02-01T07:41:12;185.95;;;72.90;;
9186;SDS011;7273;48.902;9.410;2023-02-01T07:43:38;188.88;;;73.70;;
9186;SDS011;7273;48.902;9.410;2023-02-01T07:46:04;189.93;;;73.38;;
9186;SDS011;7273;48.902;9.410;2023-02-01T07:48:30;199.85;;;75.80;;
9186;SDS011;7273;48.902;9.410;2023-02-01T07:50:59;200.57;;;76.32;;
9186;SDS011;7273;48.902;9.410;2023-02-01T07:53:35;205.02;;;77.20;;
9186;SDS011;7273;48.902;9.410;2023-02-01T07:56:02;231.10;;;84.13;;
9186;SDS011;7273;48.902;9.410;2023-02-01T07:58:28;298.20;;;100.55;;
9186;SDS011;7273;48.902;9.410;2023-02-01T08:00:54;308.80;;;102.75;;
9186;SDS011;7273;48.902;9.410;2023-02-01T08:03:38;291.58;;;99.00;;
9186;SDS011;7273;48.902;9.410;2023-02-01T08:06:05;310.50;;;103.28;;
9186;SDS011;7273;48.902;9.410;2023-02-01T08:08:31;187.50;;;73.95;;
9186;SDS011;7273;48.902;9.410;2023-02-01T08:10:57;176.60;;;70.55;;
9186;SDS011;7273;48.902;9.410;2023-02-01T08:13:24;176.27;;;70.47;;
9186;SDS011;7273;48.902;9.410;2023-02-01T08:15:49;181.70;;;73.60;;
9186;SDS011;7273;48.902;9.410;2023-02-01T08:18:15;176.35;;;70.43;;
9186;SDS011;7273;48.902;9.410;2023-02-01T08:20:42;176.35;;;70.72;;
9186;SDS011;7273;48.902;9.410;2023-02-01T08:23:10;177.82;;;70.63;;
9186;SDS011;7273;48.902;9.410;2023-02-01T08:25:36;178.65;;;70.80;;
9186;SDS011;7273;48.902;9.410;2023-02-01T08:28:02;179.05;;;70.68;;
9186;SDS011;7273;48.902;9.410;2023-02-01T08:30:28;182.77;;;71.75;;
9186;SDS011;7273;48.902;9.410;2023-02-01T08:32:53;186.40;;;73.03;;
9186;SDS011;7273;48.902;9.410;2023-02-01T08:35:19;190.57;;;73.55;;
9186;SDS011;7273;48.902;9.410;2023-02-01T08:37:44;200.05;;;76.65;;
9186;SDS011;7273;48.902;9.410;2023-02-01T08:40:10;197.85;;;75.97;;
9186;SDS011;7273;48.902;9.410;2023-02-01T08:42:35;214.63;;;82.10;;
9186;SDS011;7273;48.902;9.410;2023-02-01T08:45:17;198.50;;;75.65;;
9186;SDS011;7273;48.902;9.410;2023-02-01T08:47:45;197.32;;;74.88;;
9186;SDS011;7273;48.902;9.410;2023-02-01T08:50:12;207.02;;;78.55;;
9186;SDS011;7273;48.902;9.410;2023-02-01T08:52:38;239.23;;;85.50;;
9186;SDS011;7273;48.902;9.410;2023-02-01T08:55:04;329.83;;;107.50;;
9186;SDS011;7273;48.902;9.410;2023-02-01T08:57:30;257.55;;;89.70;;
9186;SDS011;7273;48.902;9.410;2023-02-01T08:59:57;247.15;;;87.55;;
9186;SDS011;7273;48.902;9.410;2023-02-01T09:02:22;228.20;;;82.53;;
9186;SDS011;7273;48.902;9.410;2023-02-01T09:04:48;192.82;;;74.03;;
9186;SDS011;7273;48.902;9.410;2023-02-01T09:07:13;196.02;;;75.63;;
9186;SDS011;7273;48.902;9.410;2023-02-01T09:09:39;247.95;;;87.10;;
9186;SDS011;7273;48.902;9.410;2023-02-01T09:12:05;205.10;;;77.18;;
9186;SDS011;7273;48.902;9.410;2023-02-01T09:14:31;193.43;;;74.65;;
9186;SDS011;7273;48.902;9.410;2023-02-01T09:16:56;205.48;;;77.55;;
9186;SDS011;7273;48.902;9.410;2023-02-01T09:19:22;239.63;;;85.50;;
9186;SDS011;7273;48.902;9.410;2023-02-01T09:21:47;283.50;;;96.22;;
9186;SDS011;7273;48.902;9.410;2023-02-01T09:24:13;229.10;;;83.50;;
9186;SDS011;7273;48.902;9.410;2023-02-01T09:26:39;210.63;;;79.57;;
9186;SDS011;7273;48.902;9.410;2023-02-01T09:29:05;245.55;;;87.13;;
9186;SDS011;7273;48.902;9.410;2023-02-01T09:31:37;254.13;;;88.70;;
9186;SDS011;7273;48.902;9.410;2023-02-01T09:34:03;296.02;;;98.95;;
9186;SDS011;7273;48.902;9.410;2023-02-01T09:36:29;315.15;;;103.63;;
9186;SDS011;7273;48.902;9.410;2023-02-01T09:38:54;258.02;;;91.10;;
9186;SDS011;7273;48.902;9.410;2023-02-01T09:41:30;264.15;;;91.40;;
9186;SDS011;7273;48.902;9.410;2023-02-01T09:44:09;212.55;;;78.70;;
9186;SDS011;7273;48.902;9.410;2023-02-01T09:46:45;187.90;;;73.75;;
9186;SDS011;7273;48.902;9.410;2023-02-01T09:49:55;182.63;;;72.18;;
9186;SDS011;7273;48.902;9.410;2023-02-01T09:52:07;187.35;;;73.30;;
9186;SDS011;7273;48.902;9.410;2023-02-01T09:54:57;189.52;;;74.70;;
9186;SDS011;7273;48.902;9.410;2023-02-01T09:57:39;193.02;;;74.60;;
9186;SDS011;7273;48.902;9.410;2023-02-01T10:00:15;205.25;;;77.38;;
9186;SDS011;7273;48.902;9.410;2023-02-01T10:02:44;226.30;;;83.13;;
9186;SDS011;7273;48.902;9.410;2023-02-01T10:05:16;340.45;;;108.82;;
9186;SDS011;7273;48.902;9.410;2023-02-01T10:08:09;312.48;;;103.03;;
9186;SDS011;7273;48.902;9.410;2023-02-01T10:13:22;296.33;;;94.50;;
9186;SDS011;7273;48.902;9.410;2023-02-01T10:19:10;266.77;;;92.28;;
9186;SDS011;7273;48.902;9.410;2023-02-01T10:22:01;254.63;;;89.55;;
9186;SDS011;7273;48.902;9.410;2023-02-01T10:24:46;245.73;;;87.22;;
9186;SDS011;7273;48.902;9.410;2023-02-01T10:27:34;278.35;;;94.63;;
9186;SDS011;7273;48.902;9.410;2023-02-01T10:32:56;210.10;;;79.15;;
9186;SDS011;7273;48.902;9.410;2023-02-01T10:35:27;257.70;;;90.28;;
9186;SDS011;7273;48.902;9.410;2023-02-01T10:37:58;230.45;;;83.10;;
9186;SDS011;7273;48.902;9.410;2023-02-01T10:40:29;271.48;;;92.57;;
9186;SDS011;7273;48.902;9.410;2023-02-01T10:42:58;294.33;;;97.90;;
9186;SDS011;7273;48.902;9.410;2023-02-01T10:45:29;256.52;;;89.20;;
9186;SDS011;7273;48.902;9.410;2023-02-01T10:47:57;300.15;;;99.50;;
9186;SDS011;7273;48.902;9.410;2023-02-01T10:53:15;261.85;;;92.22;;
9186;SDS011;7273;48.902;9.410;2023-02-01T10:58:30;246.95;;;86.75;;
9186;SDS011;7273;48.902;9.410;2023-02-01T11:00:57;261.05;;;91.03;;
9186;SDS011;7273;48.902;9.410;2023-02-01T11:08:57;261.13;;;89.43;;
9186;SDS011;7273;48.902;9.410;2023-02-01T11:11:26;263.98;;;91.38;;
9186;SDS011;7273;48.902;9.410;2023-02-01T11:13:53;282.08;;;95.38;;
9186;SDS011;7273;48.902;9.410;2023-02-01T11:16:21;245.88;;;87.57;;
9186;SDS011;7273;48.902;9.410;2023-02-01T11:18:46;269.10;;;94.28;;
9186;SDS011;7273;48.902;9.410;2023-02-01T11:21:19;292.50;;;97.95;;
9186;SDS011;7273;48.902;9.410;2023-02-01T11:23:46;274.98;;;94.50;;
9186;SDS011;7273;48.902;9.410;2023-02-01T11:26:22;279.75;;;94.88;;
9186;SDS011;7273;48.902;9.410;2023-02-01T11:31:29;308.83;;;101.18;;
9186;SDS011;7273;48.902;9.410;2023-02-01T11:33:58;271.55;;;92.95;;
9186;SDS011;7273;48.902;9.410;2023-02-01T11:36:30;286.38;;;96.30;;
9186;SDS011;7273;48.902;9.410;2023-02-01T11:44:33;192.07;;;74.57;;
9186;SDS011;7273;48.902;9.410;2023-02-01T11:50:12;307.60;;;101.38;;
9186;SDS011;7273;48.902;9.410;2023-02-01T12:04:21;220.73;;;80.53;;
9186;SDS011;7273;48.902;9.410;2023-02-01T12:06:51;223.52;;;81.40;;
9186;SDS011;7273;48.902;9.410;2023-02-01T12:30:44;216.25;;;79.95;;
9186;SDS011;7273;48.902;9.410;2023-02-01T12:33:40;220.75;;;80.93;;
9186;SDS011;7273;48.902;9.410;2023-02-01T12:42:11;236.63;;;85.15;;
9186;SDS011;7273;48.902;9.410;2023-02-01T12:47:26;289.80;;;96.68;;
9186;SDS011;7273;48.902;9.410;2023-02-01T12:50:19;245.82;;;86.55;;
9186;SDS011;7273;48.902;9.410;2023-02-01T12:52:52;277.13;;;93.82;;
9186;SDS011;7273;48.902;9.410;2023-02-01T13:01:13;269.55;;;93.00;;
9186;SDS011;7273;48.902;9.410;2023-02-01T13:03:41;315.20;;;102.05;;
9186;SDS011;7273;48.902;9.410;2023-02-01T13:06:16;291.92;;;96.95;;
9186;SDS011;7273;48.902;9.410;2023-02-01T13:11:41;310.33;;;100.85;;
9186;SDS011;7273;48.902;9.410;2023-02-01T13:17:17;155.35;;;64.00;;
9186;SDS011;7273;48.902;9.410;2023-02-01T13:22:50;169.63;;;68.45;;
9186;SDS011;7273;48.902;9.410;2023-02-01T13:25:27;184.02;;;71.50;;
9186;SDS011;7273;48.902;9.410;2023-02-01T13:28:04;214.35;;;79.40;;
9186;SDS011;7273;48.902;9.410;2023-02-01T13:31:20;196.68;;;75.13;;
9186;SDS011;7273;48.902;9.410;2023-02-01T13:42:15;163.25;;;64.15;;
9186;SDS011;7273;48.902;9.410;2023-02-01T13:47:49;180.85;;;71.63;;
9186;SDS011;7273;48.902;9.410;2023-02-01T13:52:59;124.05;;;56.22;;
9186;SDS011;7273;48.902;9.410;2023-02-01T13:55:31;118.80;;;55.17;;
9186;SDS011;7273;48.902;9.410;2023-02-01T13:58:04;115.55;;;53.85;;
9186;SDS011;7273;48.902;9.410;2023-02-01T14:00:31;115.53;;;53.92;;
9186;SDS011;7273;48.902;9.410;2023-02-01T14:23:44;146.93;;;62.70;;
9186;SDS011;7273;48.902;9.410;2023-02-01T14:26:24;156.95;;;65.40;;
9186;SDS011;7273;48.902;9.410;2023-02-01T14:29:16;428.73;;;141.35;;
9186;SDS011;7273;48.902;9.410;2023-02-01T14:44:50;726.13;;;230.05;;
9186;SDS011;7273;48.902;9.410;2023-02-01T14:49:58;723.63;;;228.05;;
9186;SDS011;7273;48.902;9.410;2023-02-01T14:52:31;718.42;;;227.38;;
9186;SDS011;7273;48.902;9.410;2023-02-01T14:55:01;718.60;;;228.82;;
9186;SDS011;7273;48.902;9.410;2023-02-01T14:57:34;712.70;;;226.20;;
9186;SDS011;7273;48.902;9.410;2023-02-01T15:00:12;717.25;;;224.55;;
9186;SDS011;7273;48.902;9.410;2023-02-01T15:02:45;716.75;;;225.25;;
9186;SDS011;7273;48.902;9.410;2023-02-01T15:08:22;716.58;;;226.13;;
9186;SDS011;7273;48.902;9.410;2023-02-01T15:10:53;717.03;;;225.73;;
9186;SDS011;7273;48.902;9.410;2023-02-01T15:13:21;720.55;;;226.82;;
9186;SDS011;7273;48.902;9.410;2023-02-01T15:16:04;722.08;;;227.48;;
9186;SDS011;7273;48.902;9.410;2023-02-01T15:18:30;721.83;;;230.20;;
9186;SDS011;7273;48.902;9.410;2023-02-01T15:20:57;716.47;;;224.82;;
9186;SDS011;7273;48.902;9.410;2023-02-01T15:23:24;716.00;;;224.90;;
9186;SDS011;7273;48.902;9.410;2023-02-01T15:25:50;720.00;;;226.15;;
9186;SDS011;7273;48.902;9.410;2023-02-01T15:28:16;719.78;;;226.60;;
9186;SDS011;7273;48.902;9.410;2023-02-01T15:30:56;717.10;;;225.25;;
9186;SDS011;7273;48.902;9.410;2023-02-01T15:33:24;717.60;;;226.10;;
9186;SDS011;7273;48.902;9.410;2023-02-01T15:38:39;714.88;;;225.68;;
9186;SDS011;7273;48.902;9.410;2023-02-01T15:41:08;710.45;;;223.98;;
9186;SDS011;7273;48.902;9.410;2023-02-01T15:43:38;708.22;;;222.68;;
9186;SDS011;7273;48.902;9.410;2023-02-01T15:46:08;705.88;;;222.52;;
9186;SDS011;7273;48.902;9.410;2023-02-01T15:49:02;711.70;;;223.95;;
9186;SDS011;7273;48.902;9.410;2023-02-01T15:51:28;706.78;;;225.55;;
9186;SDS011;7273;48.902;9.410;2023-02-01T15:53:59;706.10;;;221.82;;
9186;SDS011;7273;48.902;9.410;2023-02-01T15:56:27;709.70;;;223.98;;
9186;SDS011;7273;48.902;9.410;2023-02-01T15:58:58;711.80;;;224.93;;
9186;SDS011;7273;48.902;9.410;2023-02-01T16:06:52;705.42;;;228.20;;
9186;SDS011;7273;48.902;9.410;2023-02-01T16:09:20;705.35;;;223.60;;
9186;SDS011;7273;48.902;9.410;2023-02-01T16:11:59;712.97;;;227.63;;
9186;SDS011;7273;48.902;9.410;2023-02-01T16:14:25;709.70;;;225.13;;
9186;SDS011;7273;48.902;9.410;2023-02-01T16:16:52;711.50;;;226.13;;
9186;SDS011;7273;48.902;9.410;2023-02-01T16:19:20;712.83;;;225.60;;
9186;SDS011;7273;48.902;9.410;2023-02-01T16:21:47;712.45;;;224.82;;
9186;SDS011;7273;48.902;9.410;2023-02-01T16:24:12;714.65;;;225.45;;
9186;SDS011;7273;48.902;9.410;2023-02-01T16:26:38;714.63;;;227.05;;
9186;SDS011;7273;48.902;9.410;2023-02-01T16:29:04;712.50;;;225.73;;
9186;SDS011;7273;48.902;9.410;2023-02-01T16:31:32;711.10;;;224.98;;
9186;SDS011;7273;48.902;9.410;2023-02-01T16:34:03;711.60;;;224.73;;
9186;SDS011;7273;48.902;9.410;2023-02-01T16:36:30;717.58;;;227.20;;
9186;SDS011;7273;48.902;9.410;2023-02-01T16:38:56;714.00;;;226.10;;
9186;SDS011;7273;48.902;9.410;2023-02-01T16:41:22;714.47;;;226.00;;
9186;SDS011;7273;48.902;9.410;2023-02-01T16:43:49;715.65;;;226.85;;
9186;SDS011;7273;48.902;9.410;2023-02-01T16:46:16;719.47;;;229.57;;
9186;SDS011;7273;48.902;9.410;2023-02-01T16:48:48;720.25;;;230.65;;
9186;SDS011;7273;48.902;9.410;2023-02-01T16:51:18;718.50;;;227.48;;
9186;SDS011;7273;48.902;9.410;2023-02-01T16:53:44;719.53;;;228.18;;
9186;SDS011;7273;48.902;9.410;2023-02-01T16:56:23;723.42;;;229.27;;
9186;SDS011;7273;48.902;9.410;2023-02-01T16:58:53;718.28;;;227.07;;
9186;SDS011;7273;48.902;9.410;2023-02-01T17:01:19;719.58;;;227.52;;
9186;SDS011;7273;48.902;9.410;2023-02-01T17:03:44;717.95;;;227.18;;
9186;SDS011;7273;48.902;9.410;2023-02-01T17:06:12;721.25;;;228.35;;
9186;SDS011;7273;48.902;9.410;2023-02-01T17:08:41;719.80;;;227.55;;
9186;SDS011;7273;48.902;9.410;2023-02-01T17:11:09;719.45;;;227.80;;
9186;SDS011;7273;48.902;9.410;2023-02-01T17:13:38;720.88;;;228.32;;
9186;SDS011;7273;48.902;9.410;2023-02-01T17:16:08;728.83;;;230.85;;
9186;SDS011;7273;48.902;9.410;2023-02-01T17:18:36;728.53;;;231.00;;
9186;SDS011;7273;48.902;9.410;2023-02-01T17:21:02;725.78;;;229.50;;
9186;SDS011;7273;48.902;9.410;2023-02-01T17:23:30;724.85;;;229.90;;
9186;SDS011;7273;48.902;9.410;2023-02-01T17:25:56;725.60;;;229.65;;
9186;SDS011;7273;48.902;9.410;2023-02-01T17:28:22;728.97;;;231.48;;
9186;SDS011;7273;48.902;9.410;2023-02-01T17:30:47;725.65;;;229.88;;
9186;SDS011;7273;48.902;9.410;2023-02-01T17:33:18;723.42;;;228.57;;
9186;SDS011;7273;48.902;9.410;2023-02-01T17:35:46;726.05;;;229.70;;
9186;SDS011;7273;48.902;9.410;2023-02-01T17:38:12;730.22;;;230.82;;
9186;SDS011;7273;48.902;9.410;2023-02-01T17:40:38;731.13;;;231.38;;
9186;SDS011;7273;48.902;9.410;2023-02-01T17:43:03;729.92;;;230.70;;
9186;SDS011;7273;48.902;9.410;2023-02-01T17:45:35;727.58;;;229.50;;
9186;SDS011;7273;48.902;9.410;2023-02-01T17:48:05;729.15;;;230.23;;
9186;SDS011;7273;48.902;9.410;2023-02-01T17:50:32;729.38;;;230.52;;
9186;SDS011;7273;48.902;9.410;2023-02-01T17:53:00;729.58;;;230.30;;
9186;SDS011;7273;48.902;9.410;2023-02-01T17:55:27;725.55;;;229.07;;